Time;durP1;ratioP1;P1;durP2;ratioP2;P2;SDS_P1;SDS_P2;PMS_P1;PMS_P2;Temp;Humidity;BMP_temperature;BMP_pressure;BME280_temperature;BME280_humidity;BME280_pressure;Samples;Min_cycle;Max_cycle;Signal;HPM_P1;HPM_P2
2023/11/09 00:00:50;;;;;;;3.9;2.7;;;;;;;;;;;;;
2023/11/09 00:03:15;;;;;;;3;2.1;;;;;;;;;;;;;
2023/11/09 00:05:43;;;;;;;3;1.8;;;;;;;;;;;;;
2023/11/09 00:08:08;;;;;;;2.7;1.9;;;;;;;;;;;;;
2023/11/09 00:10:42;;;;;;;2.5;2.2;;;;;;;;;;;;;
2023/11/09 00:13:14;;;;;;;3.2;1.9;;;;;;;;;;;;;
2023/11/09 00:15:40;;;;;;;3.9;2.2;;;;;;;;;;;;;
2023/11/09 00:18:08;;;;;;;3.5;2.3;;;;;;;;;;;;;
2023/11/09 00:20:37;;;;;;;3.3;2.2;;;;;;;;;;;;;
2023/11/09 00:23:02;;;;;;;4.5;2.8;;;;;;;;;;;;;
2023/11/09 00:25:35;;;;;;;6.1;3.1;;;;;;;;;;;;;
2023/11/09 00:28:00;;;;;;;8.5;4.4;;;;;;;;;;;;;
2023/11/09 00:30:26;;;;;;;5.3;3.2;;;;;;;;;;;;;
2023/11/09 00:32:50;;;;;;;5.7;3;;;;;;;;;;;;;
2023/11/09 00:35:16;;;;;;;3;2;;;;;;;;;;;;;
2023/11/09 00:37:45;;;;;;;2.6;1.9;;;;;;;;;;;;;
2023/11/09 00:40:12;;;;;;;2.5;1.6;;;;;;;;;;;;;
2023/11/09 00:42:35;;;;;;;2.6;2;;;;;;;;;;;;;
2023/11/09 00:45:01;;;;;;;2.1;1.6;;;;;;;;;;;;;
2023/11/09 00:47:26;;;;;;;1.7;1.3;;;;;;;;;;;;;
2023/11/09 00:49:53;;;;;;;1.9;1.5;;;;;;;;;;;;;
2023/11/09 00:52:18;;;;;;;1.9;1.5;;;;;;;;;;;;;
2023/11/09 00:54:44;;;;;;;2.3;1.6;;;;;;;;;;;;;
2023/11/09 00:57:09;;;;;;;2;1.6;;;;;;;;;;;;;
2023/11/09 00:59:35;;;;;;;2.6;1.6;;;;;;;;;;;;;
2023/11/09 01:02:00;;;;;;;2.7;1.9;;;;;;;;;;;;;
2023/11/09 01:04:27;;;;;;;4;2.1;;;;;;;;;;;;;
2023/11/09 01:06:53;;;;;;;2.7;2;;;;;;;;;;;;;
2023/11/09 01:09:18;;;;;;;2.8;2;;;;;;;;;;;;;
2023/11/09 01:11:43;;;;;;;1.6;1.3;;;;;;;;;;;;;
2023/11/09 01:14:11;;;;;;;1.6;1.2;;;;;;;;;;;;;
2023/11/09 01:16:36;;;;;;;1.6;1.5;;;;;;;;;;;;;
2023/11/09 01:19:02;;;;;;;1.3;1.1;;;;;;;;;;;;;
2023/11/09 01:21:28;;;;;;;1.9;1.4;;;;;;;;;;;;;
2023/11/09 01:23:53;;;;;;;2.8;1.4;;;;;;;;;;;;;
2023/11/09 01:26:19;;;;;;;2.3;1.6;;;;;;;;;;;;;
2023/11/09 01:28:46;;;;;;;1.9;1.5;;;;;;;;;;;;;
2023/11/09 01:31:11;;;;;;;1.4;1.2;;;;;;;;;;;;;
2023/11/09 01:33:37;;;;;;;2.1;1.4;;;;;;;;;;;;;
2023/11/09 01:36:01;;;;;;;1.2;1.1;;;;;;;;;;;;;
2023/11/09 01:38:30;;;;;;;1.3;1.2;;;;;;;;;;;;;
2023/11/09 01:40:54;;;;;;;1.2;1;;;;;;;;;;;;;
2023/11/09 01:43:19;;;;;;;1.3;1.1;;;;;;;;;;;;;
2023/11/09 01:45:45;;;;;;;2.9;1.6;;;;;;;;;;;;;
2023/11/09 01:48:11;;;;;;;3.5;2;;;;;;;;;;;;;
2023/11/09 01:50:36;;;;;;;2;1.6;;;;;;;;;;;;;
2023/11/09 01:53:06;;;;;;;2.9;1.6;;;;;;;;;;;;;
2023/11/09 01:55:28;;;;;;;1.3;1;;;;;;;;;;;;;
2023/11/09 01:57:54;;;;;;;1.2;1.1;;;;;;;;;;;;;
2023/11/09 02:00:20;;;;;;;1.8;1.3;;;;;;;;;;;;;
2023/11/09 02:02:52;;;;;;;17.6;8.3;;;;;;;;;;;;;
2023/11/09 02:05:19;;;;;;;2.4;2;;;;;;;;;;;;;
2023/11/09 02:07:44;;;;;;;0.9;0.8;;;;;;;;;;;;;
2023/11/09 02:10:13;;;;;;;0.9;0.9;;;;;;;;;;;;;
2023/11/09 02:12:41;;;;;;;1.2;1;;;;;;;;;;;;;
2023/11/09 02:15:06;;;;;;;1.5;1;;;;;;;;;;;;;
2023/11/09 02:17:31;;;;;;;2.4;1.3;;;;;;;;;;;;;
2023/11/09 02:19:56;;;;;;;2;1.1;;;;;;;;;;;;;
2023/11/09 02:22:21;;;;;;;1.7;1.1;;;;;;;;;;;;;
2023/11/09 02:24:47;;;;;;;1.6;0.9;;;;;;;;;;;;;
2023/11/09 02:27:12;;;;;;;2.3;1.1;;;;;;;;;;;;;
2023/11/09 02:29:40;;;;;;;1;1;;;;;;;;;;;;;
2023/11/09 02:32:03;;;;;;;2.2;1.4;;;;;;;;;;;;;
2023/11/09 02:34:29;;;;;;;1.4;1.2;;;;;;;;;;;;;
2023/11/09 02:36:54;;;;;;;2.5;1.1;;;;;;;;;;;;;
2023/11/09 02:39:20;;;;;;;1.2;1;;;;;;;;;;;;;
2023/11/09 02:41:45;;;;;;;1;0.9;;;;;;;;;;;;;
2023/11/09 02:44:11;;;;;;;1.3;1;;;;;;;;;;;;;
2023/11/09 02:46:36;;;;;;;1.7;1.1;;;;;;;;;;;;;
2023/11/09 02:49:03;;;;;;;1.2;1.1;;;;;;;;;;;;;
2023/11/09 02:51:28;;;;;;;1.3;0.9;;;;;;;;;;;;;
2023/11/09 02:53:54;;;;;;;0.8;0.8;;;;;;;;;;;;;
2023/11/09 02:56:18;;;;;;;0.8;0.8;;;;;;;;;;;;;
2023/11/09 02:58:45;;;;;;;1;0.9;;;;;;;;;;;;;
2023/11/09 03:01:09;;;;;;;1.5;0.8;;;;;;;;;;;;;
2023/11/09 03:03:36;;;;;;;0.9;0.9;;;;;;;;;;;;;
2023/11/09 03:06:01;;;;;;;1.4;0.8;;;;;;;;;;;;;
2023/11/09 03:08:28;;;;;;;3.2;2.1;;;;;;;;;;;;;
2023/11/09 03:10:52;;;;;;;1.3;1;;;;;;;;;;;;;
2023/11/09 03:13:19;;;;;;;1.3;0.8;;;;;;;;;;;;;
2023/11/09 03:15:44;;;;;;;1.1;0.9;;;;;;;;;;;;;
2023/11/09 03:18:12;;;;;;;1.8;0.9;;;;;;;;;;;;;
2023/11/09 03:20:38;;;;;;;1;0.8;;;;;;;;;;;;;
2023/11/09 03:23:04;;;;;;;0.9;0.8;;;;;;;;;;;;;
2023/11/09 03:25:29;;;;;;;1;0.8;;;;;;;;;;;;;
2023/11/09 03:27:56;;;;;;;1.1;1;;;;;;;;;;;;;
2023/11/09 03:30:21;;;;;;;1.2;1.1;;;;;;;;;;;;;
2023/11/09 03:32:50;;;;;;;1.7;1.6;;;;;;;;;;;;;
2023/11/09 03:35:21;;;;;;;2.4;1.9;;;;;;;;;;;;;
2023/11/09 03:37:49;;;;;;;3.2;2.4;;;;;;;;;;;;;
2023/11/09 03:40:15;;;;;;;5.9;3.9;;;;;;;;;;;;;
2023/11/09 03:42:45;;;;;;;4;3.3;;;;;;;;;;;;;
2023/11/09 03:45:16;;;;;;;5.2;3.4;;;;;;;;;;;;;
2023/11/09 03:47:50;;;;;;;3.5;2.7;;;;;;;;;;;;;
2023/11/09 03:50:21;;;;;;;4.9;2.8;;;;;;;;;;;;;
2023/11/09 03:52:50;;;;;;;2.1;1.7;;;;;;;;;;;;;
2023/11/09 03:55:14;;;;;;;1.6;1.4;;;;;;;;;;;;;
2023/11/09 03:57:43;;;;;;;1.6;1.3;;;;;;;;;;;;;
2023/11/09 04:02:37;;;;;;;1.2;1.1;;;;;;;1.15;90.14063;933.1795;;;;
2023/11/09 04:05:04;;;;;;;1.7;1;;;;;;;1.08;90.66113;933.1298;;;;
2023/11/09 04:07:34;;;;;;;1.2;0.9;;;;;;;1.06;90.31152;933.0751;;;;
2023/11/09 04:10:00;;;;;;;0.9;0.8;;;;;;;1.22;89.75195;933.1094;;;;
2023/11/09 04:12:27;;;;;;;1.5;0.8;;;;;;;1.47;86.76465;933.0133;;;;
2023/11/09 04:14:54;;;;;;;0.7;0.7;;;;;;;1.53;87.49512;932.9387;;;;
2023/11/09 04:17:18;;;;;;;1;0.9;;;;;;;1.51;87.31055;932.869;;;;
2023/11/09 04:19:48;;;;;;;1.6;1;;;;;;;1.15;89.08105;932.892;;;;
2023/11/09 04:22:13;;;;;;;1.2;1;;;;;;;1.03;90.27246;932.8013;;;;
2023/11/09 04:24:46;;;;;;;1.9;1.3;;;;;;;0.93;90.90723;932.7471;;;;
2023/11/09 04:27:15;;;;;;;1.3;1.1;;;;;;;0.81;91.35059;932.7288;;;;
2023/11/09 04:29:40;;;;;;;1.1;0.9;;;;;;;1.21;87.58301;932.6543;;;;
2023/11/09 04:32:11;;;;;;;1.9;1.1;;;;;;;1.36;88.34082;932.6118;;;;
2023/11/09 04:34:36;;;;;;;1.1;1;;;;;;;1.21;88.80078;932.5884;;;;
2023/11/09 04:37:01;;;;;;;1.3;1.1;;;;;;;1.02;89.87695;932.5305;;;;
2023/11/09 04:39:31;;;;;;;1.7;1.1;;;;;;;0.88;90.68555;932.6082;;;;
2023/11/09 04:41:54;;;;;;;1.7;1.4;;;;;;;0.84;91.23438;932.5308;;;;
2023/11/09 04:44:23;;;;;;;1.4;1.2;;;;;;;0.84;91.3457;932.5839;;;;
2023/11/09 04:46:48;;;;;;;1.3;1.1;;;;;;;0.85;90.93457;932.5491;;;;
2023/11/09 04:49:13;;;;;;;2.1;1.4;;;;;;;1.06;89.41797;932.4708;;;;
2023/11/09 04:51:45;;;;;;;1.3;1.2;;;;;;;1.28;88.4043;932.4042;;;;
2023/11/09 04:54:16;;;;;;;2.4;1.5;;;;;;;1.25;88.98828;932.52;;;;
2023/11/09 04:56:52;;;;;;;1.9;1.6;;;;;;;1.26;88.93457;932.4708;;;;
2023/11/09 04:59:02;;;;;;;2.2;1.8;;;;;;;1.29;88.69629;932.4777;;;;
2023/11/09 05:08:51;;;;;;;2.7;1.8;;;;;;;1.24;88.26953;932.4263;;;;
2023/11/09 05:11:18;;;;;;;4.8;2.4;;;;;;;1.19;88.60645;932.4597;;;;
2023/11/09 05:13:48;;;;;;;1.8;1.3;;;;;;;1.04;88.96777;932.2954;;;;
2023/11/09 05:16:14;;;;;;;2.2;1.4;;;;;;;1.19;88.64258;932.3477;;;;
2023/11/09 05:18:47;;;;;;;2;1.4;;;;;;;1.32;88.08789;932.2896;;;;
2023/11/09 05:21:10;;;;;;;2.4;1.5;;;;;;;1.17;88.4043;932.2717;;;;
2023/11/09 05:23:35;;;;;;;2.6;1.5;;;;;;;1.39;87.75391;932.2118;;;;
2023/11/09 05:26:01;;;;;;;2.2;1.2;;;;;;;1.29;88.67188;932.2023;;;;
2023/11/09 05:28:29;;;;;;;2.7;2;;;;;;;1.37;87.78418;932.1351;;;;
2023/11/09 05:30:56;;;;;;;1.6;1.3;;;;;;;1.23;87.47656;932.0458;;;;
2023/11/09 05:33:24;;;;;;;1.9;1.6;;;;;;;1.41;87.24414;932.0848;;;;
2023/11/09 05:35:49;;;;;;;2.6;1.5;;;;;;;1.32;86.6123;932.1406;;;;
2023/11/09 05:38:14;;;;;;;2.7;1.8;;;;;;;1.23;87.7334;932.0293;;;;
2023/11/09 05:40:43;;;;;;;2.8;1.5;;;;;;;1.48;86.86914;931.9681;;;;
2023/11/09 05:43:09;;;;;;;2.4;1.8;;;;;;;1.25;87.9834;932.0889;;;;
2023/11/09 05:45:33;;;;;;;2.4;1.8;;;;;;;1.03;88.94336;932.0433;;;;
2023/11/09 05:48:06;;;;;;;4.3;2.1;;;;;;;1.13;88.85254;932.0161;;;;
2023/11/09 05:50:34;;;;;;;3.9;1.8;;;;;;;1.16;88.47852;932.0586;;;;
2023/11/09 05:52:59;;;;;;;2.2;1.7;;;;;;;1.31;87.66113;931.9551;;;;
2023/11/09 05:55:24;;;;;;;22.6;10.5;;;;;;;1.24;87.8584;931.8508;;;;
2023/11/09 05:57:58;;;;;;;9.2;5.6;;;;;;;1.42;87.26855;931.861;;;;
2023/11/09 06:00:19;;;;;;;4.1;3.1;;;;;;;1.33;87.34082;931.8672;;;;
2023/11/09 06:02:49;;;;;;;4.6;2.8;;;;;;;1.5;86.92871;931.8558;;;;
2023/11/09 06:05:17;;;;;;;3;2.3;;;;;;;1.31;87.82715;931.8138;;;;
2023/11/09 06:07:40;;;;;;;3;2;;;;;;;1.45;87.05176;931.7827;;;;
2023/11/09 06:10:09;;;;;;;1.8;1.6;;;;;;;1.4;86.54004;931.7216;;;;
2023/11/09 06:12:33;;;;;;;2.1;1.8;;;;;;;1.45;86.65918;931.6203;;;;
2023/11/09 06:15:04;;;;;;;2.3;1.8;;;;;;;1.34;87.59961;931.7059;;;;
2023/11/09 06:17:32;;;;;;;3.1;2.6;;;;;;;1.37;86.99023;931.6975;;;;
2023/11/09 06:19:59;;;;;;;4.5;3.1;;;;;;;1.25;87.73535;931.7067;;;;
2023/11/09 06:22:25;;;;;;;3.2;2.2;;;;;;;1.43;87.20313;931.7153;;;;
2023/11/09 06:24:51;;;;;;;4.4;3.7;;;;;;;1.38;87.15039;931.7466;;;;
2023/11/09 06:27:21;;;;;;;3;2.4;;;;;;;1.55;86.55664;931.6556;;;;
2023/11/09 06:29:46;;;;;;;2.6;1.9;;;;;;;1.62;86.00293;931.6581;;;;
2023/11/09 06:32:12;;;;;;;4.5;2.4;;;;;;;1.77;85.22852;931.6506;;;;
2023/11/09 06:34:37;;;;;;;3.4;2.5;;;;;;;1.66;85.33008;931.6517;;;;
2023/11/09 06:37:05;;;;;;;3.1;2.3;;;;;;;1.83;85.47461;931.7068;;;;
2023/11/09 06:39:31;;;;;;;3;2.3;;;;;;;1.67;85.91309;931.7896;;;;
2023/11/09 06:41:59;;;;;;;3.2;2.5;;;;;;;1.74;85.90527;931.7256;;;;
2023/11/09 06:44:29;;;;;;;4.1;2.9;;;;;;;1.98;84.73145;931.7356;;;;
2023/11/09 06:46:53;;;;;;;5.6;2.9;;;;;;;2.06;84.59082;931.6646;;;;
2023/11/09 06:49:22;;;;;;;4.3;2.6;;;;;;;1.93;84.90332;931.757;;;;
2023/11/09 06:51:47;;;;;;;7.2;4;;;;;;;2.14;84.01563;931.6097;;;;
2023/11/09 06:54:19;;;;;;;10.7;4.7;;;;;;;2.11;84.05273;931.6873;;;;
2023/11/09 06:56:44;;;;;;;9;5;;;;;;;2.14;83.94629;931.6011;;;;
2023/11/09 06:59:13;;;;;;;7.1;4.5;;;;;;;2.16;84.60156;931.6355;;;;
2023/11/09 07:01:44;;;;;;;5.5;4;;;;;;;2.11;85.12988;931.5893;;;;
2023/11/09 07:04:13;;;;;;;6.1;3.7;;;;;;;2.51;84.12207;931.6069;;;;
2023/11/09 07:06:38;;;;;;;6;4.1;;;;;;;2.5;84.55566;931.55;;;;
2023/11/09 07:09:09;;;;;;;6.1;4;;;;;;;3.09;82.50684;931.577;;;;
2023/11/09 07:11:37;;;;;;;4.5;3.6;;;;;;;3.23;81.39063;931.6039;;;;
2023/11/09 07:14:02;;;;;;;9.2;4.2;;;;;;;3.27;80.74805;931.6113;;;;
2023/11/09 07:16:31;;;;;;;13.7;7.4;;;;;;;2.98;81.28711;931.6008;;;;
2023/11/09 07:18:56;;;;;;;7.8;4.3;;;;;;;3.18;81.16699;931.6306;;;;
2023/11/09 07:21:26;;;;;;;8.2;4;;;;;;;3.34;80.55957;931.6571;;;;
2023/11/09 07:23:59;;;;;;;11.5;5.3;;;;;;;3.41;81.03125;931.6308;;;;
2023/11/09 07:26:17;;;;;;;13.2;6.4;;;;;;;3.59;78.85156;931.5422;;;;
2023/11/09 07:28:45;;;;;;;7.9;5.1;;;;;;;3.92;79.46387;931.5705;;;;
2023/11/09 07:31:10;;;;;;;9.7;4.1;;;;;;;4.48;77.78027;931.6035;;;;
2023/11/09 07:33:40;;;;;;;6.7;2.9;;;;;;;4.61;76.72266;931.5844;;;;
2023/11/09 07:36:07;;;;;;;5.5;2.7;;;;;;;4.76;77.75098;931.5084;;;;
2023/11/09 07:38:32;;;;;;;6.5;3.1;;;;;;;4.67;76.47266;931.3876;;;;
2023/11/09 07:41:03;;;;;;;6.2;3.1;;;;;;;4.79;75.7959;931.4949;;;;
2023/11/09 07:43:34;;;;;;;7.1;3;;;;;;;4.82;76.28809;931.5447;;;;
2023/11/09 07:45:59;;;;;;;6.9;2.9;;;;;;;5.02;75.07227;931.5371;;;;
2023/11/09 07:48:26;;;;;;;7.5;3.6;;;;;;;4.98;74.35449;931.4855;;;;
2023/11/09 07:50:56;;;;;;;8.6;3.3;;;;;;;5.05;74.35547;931.5258;;;;
2023/11/09 07:53:25;;;;;;;6.6;3.6;;;;;;;5.29;74.67871;931.5801;;;;
2023/11/09 07:55:55;;;;;;;7.8;3.5;;;;;;;5.39;73.54492;931.5457;;;;
2023/11/09 07:58:20;;;;;;;5.4;3.2;;;;;;;5.45;76.83984;931.4697;;;;
2023/11/09 08:00:52;;;;;;;5.7;2.7;;;;;;;5.84;74.95508;931.5178;;;;
2023/11/09 08:03:21;;;;;;;5.8;2.4;;;;;;;5.74;72.72461;931.4661;;;;
2023/11/09 08:05:48;;;;;;;5.2;3;;;;;;;5.82;73.55176;931.4772;;;;
2023/11/09 08:10:13;;;;;;;7.5;6.1;;;;;;;5.9;73.08008;931.4637;;;;
2023/11/09 08:12:43;;;;;;;7.8;6.9;;;;;;;5.9;72.0752;931.4694;;;;
2023/11/09 08:15:10;;;;;;;8.7;4;;;;;;;6.23;70.98828;931.3981;;;;
2023/11/09 08:17:33;;;;;;;3.2;2.5;;;;;;;6.15;71.23633;931.445;;;;
2023/11/09 08:19:58;;;;;;;4.9;2.4;;;;;;;6.32;70.2002;931.4975;;;;
2023/11/09 08:22:24;;;;;;;2.6;1.7;;;;;;;6.32;69.85156;931.5267;;;;
2023/11/09 08:24:53;;;;;;;4.5;2.3;;;;;;;6.54;68.7666;931.5594;;;;
2023/11/09 08:27:18;;;;;;;4.2;2.5;;;;;;;6.6;67.56641;931.5491;;;;
2023/11/09 08:29:49;;;;;;;3.6;2.2;;;;;;;6.85;67.52539;931.4942;;;;
2023/11/09 08:32:16;;;;;;;3.5;2.1;;;;;;;7.19;64.90527;931.5341;;;;
2023/11/09 08:34:40;;;;;;;4.6;2.2;;;;;;;7.52;63.61816;931.4874;;;;
2023/11/09 08:37:10;;;;;;;4;2.2;;;;;;;7.74;63.01563;931.4311;;;;
2023/11/09 08:39:33;;;;;;;3.8;1.9;;;;;;;7.95;63.63574;931.3563;;;;
2023/11/09 08:42:03;;;;;;;3.1;2.5;;;;;;;7.86;62.7373;931.449;;;;
2023/11/09 08:44:27;;;;;;;3.9;2.6;;;;;;;7.97;61.96973;931.4539;;;;
2023/11/09 08:46:52;;;;;;;3.8;2;;;;;;;8.07;59.96387;931.3226;;;;
2023/11/09 08:49:23;;;;;;;1.6;1.1;;;;;;;8.22;57.48535;931.3279;;;;
2023/11/09 08:51:54;;;;;;;0.9;0.9;;;;;;;8.37;55.50684;931.3736;;;;
2023/11/09 08:54:26;;;;;;;2.6;1;;;;;;;8.22;54.54492;931.3318;;;;
2023/11/09 08:56:53;;;;;;;1.6;1;;;;;;;8.19;56.74512;931.2141;;;;
2023/11/09 08:59:16;;;;;;;1.2;0.9;;;;;;;8.42;55.71777;931.2092;;;;
2023/11/09 09:01:49;;;;;;;2.1;1.3;;;;;;;8.45;55.5293;931.1594;;;;
2023/11/09 09:04:11;;;;;;;3.5;1.4;;;;;;;8.67;53.72754;931.1775;;;;
2023/11/09 09:06:37;;;;;;;2.1;1.4;;;;;;;8.91;54.89355;931.1463;;;;
2023/11/09 09:09:04;;;;;;;4.5;1.7;;;;;;;9.23;53.4209;931.067;;;;
2023/11/09 09:11:30;;;;;;;1.6;1;;;;;;;9.49;54.99023;931.1783;;;;
2023/11/09 09:13:57;;;;;;;3.3;1;;;;;;;9.49;55.70801;931.1354;;;;
2023/11/09 09:16:21;;;;;;;1.1;0.8;;;;;;;9.95;54.37598;931.0608;;;;
2023/11/09 09:18:50;;;;;;;3.1;1.3;;;;;;;9.99;53.8457;931.1348;;;;
2023/11/09 09:21:23;;;;;;;1.6;1;;;;;;;10.39;51.93262;931.0525;;;;
2023/11/09 09:23:53;;;;;;;1.1;0.8;;;;;;;10.61;50.74902;931.0455;;;;
2023/11/09 09:26:24;;;;;;;1.2;0.7;;;;;;;10.86;51.63574;930.9662;;;;
2023/11/09 09:28:53;;;;;;;2;0.8;;;;;;;11.07;51.00781;931.0438;;;;
2023/11/09 09:31:18;;;;;;;0.7;0.6;;;;;;;11.2;50.9082;931.0527;;;;
2023/11/09 09:33:46;;;;;;;1;0.7;;;;;;;11.38;50.10645;931.0536;;;;
2023/11/09 09:36:12;;;;;;;0.6;0.6;;;;;;;11.48;48.16211;930.9983;;;;
2023/11/09 09:38:39;;;;;;;1.5;0.6;;;;;;;11.31;46.95313;931.0683;;;;
2023/11/09 09:41:02;;;;;;;0.9;0.5;;;;;;;11.17;47.2002;931.0344;;;;
2023/11/09 09:43:37;;;;;;;1.7;0.7;;;;;;;11.17;47.86328;931.0201;;;;
2023/11/09 09:46:02;;;;;;;0.4;0.4;;;;;;;11.26;46.25098;931.173;;;;
2023/11/09 09:48:30;;;;;;;2.5;1.3;;;;;;;11.39;42.86719;931.1795;;;;
2023/11/09 09:50:57;;;;;;;1.2;0.6;;;;;;;11.56;45.89355;931.1055;;;;
2023/11/09 09:53:24;;;;;;;1.3;0.7;;;;;;;11.96;43.63281;931.1028;;;;
2023/11/09 09:55:50;;;;;;;1.7;0.7;;;;;;;12.38;45.11914;931.0433;;;;
2023/11/09 09:58:12;;;;;;;0.4;0.3;;;;;;;12.62;42.90723;930.9528;;;;
2023/11/09 10:00:45;;;;;;;0.6;0.4;;;;;;;13;40.67188;930.9761;;;;
2023/11/09 10:03:16;;;;;;;1.3;0.4;;;;;;;13.2;42.32227;931.031;;;;
2023/11/09 10:05:50;;;;;;;1.2;0.5;;;;;;;13.56;37.59668;931.0358;;;;
2023/11/09 10:08:20;;;;;;;0.6;0.5;;;;;;;13.39;39.50098;930.9545;;;;
2023/11/09 10:10:44;;;;;;;0.8;0.5;;;;;;;13.22;39.86523;931.0678;;;;
2023/11/09 10:13:16;;;;;;;0.6;0.4;;;;;;;13.09;39.8877;931.0361;;;;
2023/11/09 10:15:41;;;;;;;1;0.5;;;;;;;12.98;42.13965;930.9899;;;;
2023/11/09 10:18:06;;;;;;;0.7;0.5;;;;;;;12.49;42.75684;930.9547;;;;
2023/11/09 10:20:32;;;;;;;1.6;0.9;;;;;;;12.65;44.29883;930.9549;;;;
2023/11/09 10:22:56;;;;;;;3.9;1.9;;;;;;;12.83;43.93848;930.9014;;;;
2023/11/09 10:25:26;;;;;;;4.9;2.1;;;;;;;12.9;43.97949;930.9236;;;;
2023/11/09 10:27:56;;;;;;;2.4;0.9;;;;;;;13.2;46.30762;931.0167;;;;
2023/11/09 10:30:25;;;;;;;1.2;0.9;;;;;;;13.07;43.92773;930.9572;;;;
2023/11/09 10:32:50;;;;;;;0.7;0.6;;;;;;;13.19;42.2627;930.9641;;;;
2023/11/09 10:35:19;;;;;;;0.5;0.5;;;;;;;13.32;41.83887;930.9188;;;;
2023/11/09 10:37:51;;;;;;;1.9;0.5;;;;;;;13.44;40.78125;930.9294;;;;
2023/11/09 10:40:20;;;;;;;1.2;0.8;;;;;;;13.44;40.49414;930.855;;;;
2023/11/09 10:42:53;;;;;;;1.6;0.8;;;;;;;13.4;41.24902;930.884;;;;
2023/11/09 10:45:22;;;;;;;0.6;0.6;;;;;;;13.34;40.46191;930.8513;;;;
2023/11/09 10:47:46;;;;;;;1;0.6;;;;;;;13.36;40.96973;930.8541;;;;
2023/11/09 10:50:18;;;;;;;1.9;0.6;;;;;;;13.44;41.60938;930.8278;;;;
2023/11/09 10:52:43;;;;;;;0.6;0.6;;;;;;;13;41.08496;930.9297;;;;
2023/11/09 10:55:16;;;;;;;1;0.7;;;;;;;12.73;42.08105;930.8222;;;;
2023/11/09 10:57:40;;;;;;;1.4;0.9;;;;;;;12.85;41.64453;930.8364;;;;
2023/11/09 11:00:03;;;;;;;0.8;0.7;;;;;;;13.09;40.93262;930.8274;;;;
2023/11/09 11:02:32;;;;;;;0.9;0.6;;;;;;;13.32;40.35645;930.87;;;;
2023/11/09 11:05:22;;;;;;;1;0.6;;;;;;;13.34;41.02441;930.8784;;;;
2023/11/09 11:07:49;;;;;;;1;0.8;;;;;;;13.62;40.55664;930.7848;;;;
2023/11/09 11:10:30;;;;;;;0.7;0.7;;;;;;;13.76;41.89258;930.8269;;;;
2023/11/09 11:13:03;;;;;;;0.7;0.7;;;;;;;13.86;39.75098;930.7279;;;;
2023/11/09 11:15:29;;;;;;;0.7;0.5;;;;;;;13.94;38.72266;930.7819;;;;
2023/11/09 11:17:51;;;;;;;1;0.7;;;;;;;13.8;39.04297;930.7374;;;;
2023/11/09 11:20:21;;;;;;;1.2;0.7;;;;;;;13.63;38.2002;930.7527;;;;
2023/11/09 11:23:08;;;;;;;1;0.6;;;;;;;14;38.10645;930.733;;;;
2023/11/09 11:25:35;;;;;;;0.7;0.7;;;;;;;14.13;37.56445;930.6495;;;;
2023/11/09 11:28:00;;;;;;;0.5;0.5;;;;;;;14.61;37.00684;930.6115;;;;
2023/11/09 11:30:25;;;;;;;1;0.7;;;;;;;15.08;34.7041;930.5842;;;;
2023/11/09 11:32:50;;;;;;;1.4;0.8;;;;;;;15.2;35.40625;930.5208;;;;
2023/11/09 11:37:57;;;;;;;0.7;0.7;;;;;;;15.86;33.11426;930.4674;;;;
2023/11/09 11:40:27;;;;;;;0.8;0.7;;;;;;;15.41;34.86914;930.4838;;;;
2023/11/09 11:42:59;;;;;;;1.5;0.8;;;;;;;15.3;35.63477;930.478;;;;
2023/11/09 11:45:29;;;;;;;1.2;0.8;;;;;;;15.32;35.82031;930.4841;;;;
2023/11/09 11:47:54;;;;;;;0.9;0.8;;;;;;;15.23;34.50879;930.4114;;;;
2023/11/09 11:50:23;;;;;;;31.6;13.9;;;;;;;15.27;34.37402;930.4568;;;;
2023/11/09 11:52:48;;;;;;;0.8;0.6;;;;;;;15.4;34.29199;930.4607;;;;
2023/11/09 11:55:18;;;;;;;41.6;14;;;;;;;15.38;34.09277;930.4274;;;;
2023/11/09 11:57:41;;;;;;;1.1;0.8;;;;;;;15.21;33.56152;930.4675;;;;
2023/11/09 12:00:08;;;;;;;1.7;0.6;;;;;;;14.86;34.45703;930.3709;;;;
2023/11/09 12:02:30;;;;;;;0.7;0.6;;;;;;;14.63;35.0498;930.4816;;;;
2023/11/09 12:05:00;;;;;;;1;0.8;;;;;;;14.62;35.83203;930.4323;;;;
2023/11/09 12:07:30;;;;;;;1.7;0.8;;;;;;;14.63;35.45313;930.4039;;;;
2023/11/09 12:09:57;;;;;;;0.9;0.8;;;;;;;14.63;35.00391;930.275;;;;
2023/11/09 12:12:20;;;;;;;1.5;0.7;;;;;;;14.55;36.13672;930.3435;;;;
2023/11/09 12:14:49;;;;;;;1.1;0.6;;;;;;;14.32;35.78418;930.3295;;;;
2023/11/09 12:17:13;;;;;;;1.3;0.9;;;;;;;14.1;35.7207;930.3065;;;;
2023/11/09 12:19:38;;;;;;;0.5;0.5;;;;;;;13.98;37.17188;930.3035;;;;
2023/11/09 12:22:07;;;;;;;0.5;0.5;;;;;;;14.1;36.69922;930.3418;;;;
2023/11/09 12:24:32;;;;;;;1.1;0.7;;;;;;;14.11;36.60742;930.2487;;;;
2023/11/09 12:26:57;;;;;;;0.5;0.5;;;;;;;14.09;36.48047;930.1841;;;;
2023/11/09 12:29:23;;;;;;;1.5;0.6;;;;;;;13.99;37.73828;930.2008;;;;
2023/11/09 12:31:47;;;;;;;0.6;0.5;;;;;;;13.6;38.50781;930.1625;;;;
2023/11/09 12:34:18;;;;;;;0.5;0.5;;;;;;;13.53;39.45605;930.0635;;;;
2023/11/09 12:36:42;;;;;;;0.8;0.5;;;;;;;13.6;39.95703;930.1632;;;;
2023/11/09 12:39:28;;;;;;;2.4;0.8;;;;;;;13.46;40.46191;930.1655;;;;
2023/11/09 12:41:37;;;;;;;1.3;0.7;;;;;;;13.14;40.60449;930.1514;;;;
2023/11/09 12:44:07;;;;;;;1.1;0.7;;;;;;;13.09;40.61035;930.1313;;;;
2023/11/09 12:46:28;;;;;;;0.7;0.7;;;;;;;13;40.25781;930.1227;;;;
2023/11/09 12:48:56;;;;;;;1;0.9;;;;;;;12.94;39.40234;930.0683;;;;
2023/11/09 12:51:21;;;;;;;1;0.9;;;;;;;12.89;40.89063;930.0776;;;;
2023/11/09 12:53:52;;;;;;;1;0.9;;;;;;;12.79;42.64844;930.145;;;;
2023/11/09 12:56:16;;;;;;;2.1;1;;;;;;;12.9;43.7959;930.1303;;;;
2023/11/09 12:58:42;;;;;;;1.7;0.9;;;;;;;12.98;43.39063;930.0989;;;;
2023/11/09 13:01:06;;;;;;;2.1;0.8;;;;;;;13.01;42.49902;930.0764;;;;
2023/11/09 13:03:34;;;;;;;1.2;0.7;;;;;;;13.1;44.18359;930.0001;;;;
2023/11/09 13:06:08;;;;;;;0.8;0.8;;;;;;;13.2;42.40137;930.0334;;;;
2023/11/09 13:08:25;;;;;;;0.8;0.7;;;;;;;13.34;41.03613;929.9871;;;;
2023/11/09 13:10:56;;;;;;;1.3;0.9;;;;;;;13.53;42.60645;929.9092;;;;
2023/11/09 13:13:24;;;;;;;1;0.9;;;;;;;13.7;38.79297;929.9324;;;;
2023/11/09 13:15:43;;;;;;;2.4;0.9;;;;;;;13.87;36.64453;929.8444;;;;
2023/11/09 13:18:12;;;;;;;1.5;1;;;;;;;13.98;37.72461;929.8359;;;;
2023/11/09 13:20:36;;;;;;;2.8;1.1;;;;;;;14.11;36.6543;929.7178;;;;
2023/11/09 13:23:06;;;;;;;1.2;1;;;;;;;14.43;36.91113;929.6111;;;;
2023/11/09 13:25:28;;;;;;;1.4;1.2;;;;;;;14.47;35.07129;929.6272;;;;
2023/11/09 13:27:48;;;;;;;1.3;1.1;;;;;;;14.42;36.62305;929.5765;;;;
2023/11/09 13:30:22;;;;;;;1.4;1;;;;;;;14.31;36.26758;929.5712;;;;
2023/11/09 13:32:52;;;;;;;1.6;1.3;;;;;;;14.43;35.95508;929.4995;;;;
2023/11/09 13:35:24;;;;;;;2;1.3;;;;;;;14.4;37.13965;929.3572;;;;
2023/11/09 13:37:43;;;;;;;2.2;1.2;;;;;;;14.2;35.1875;929.3953;;;;
2023/11/09 13:40:35;;;;;;;1.3;1.1;;;;;;;14;36.41504;929.3873;;;;
2023/11/09 13:42:49;;;;;;;1.3;1.2;;;;;;;14.04;36.45215;929.407;;;;
2023/11/09 13:45:33;;;;;;;1.5;1.2;;;;;;;13.87;36.94434;929.4441;;;;
2023/11/09 13:47:52;;;;;;;2.1;1.2;;;;;;;13.84;37.16016;929.3815;;;;
2023/11/09 13:50:17;;;;;;;3.2;1.5;;;;;;;13.71;36.9541;929.4066;;;;
2023/11/09 13:52:49;;;;;;;2.6;1.4;;;;;;;13.62;36.72754;929.4617;;;;
2023/11/09 13:55:22;;;;;;;4.4;1.8;;;;;;;13.45;38.06934;929.5201;;;;
2023/11/09 13:57:31;;;;;;;3.5;1.8;;;;;;;13.34;37.07227;929.4559;;;;
2023/11/09 13:59:59;;;;;;;2.2;1.6;;;;;;;13.26;40.04102;929.4573;;;;
2023/11/09 14:02:33;;;;;;;1.7;1.5;;;;;;;13.16;39.31934;929.3702;;;;
2023/11/09 14:05:01;;;;;;;2.9;1.3;;;;;;;12.84;38.07422;929.4575;;;;
2023/11/09 14:07:24;;;;;;;2.6;1.7;;;;;;;12.78;39.54883;929.4589;;;;
2023/11/09 14:09:47;;;;;;;2.4;1.6;;;;;;;12.68;38.875;929.437;;;;
2023/11/09 14:14:15;;;;;;;2.8;1.6;;;;;;;12.63;40.14355;929.3203;;;;
2023/11/09 14:16:45;;;;;;;3.2;1.8;;;;;;;12.64;40.5918;929.3585;;;;
2023/11/09 14:19:20;;;;;;;3.4;2.1;;;;;;;12.67;41.08887;929.3262;;;;
2023/11/09 14:21:37;;;;;;;2.1;1.7;;;;;;;12.67;42.35059;929.2974;;;;
2023/11/09 14:24:04;;;;;;;4.8;2.7;;;;;;;12.62;43.49219;929.231;;;;
2023/11/09 14:26:30;;;;;;;5.9;3.3;;;;;;;12.71;42.33105;929.2011;;;;
2023/11/09 14:29:01;;;;;;;3.4;1.5;;;;;;;12.67;41.52441;929.12;;;;
2023/11/09 14:31:21;;;;;;;3.6;1.9;;;;;;;12.56;42.64941;929.0262;;;;
2023/11/09 14:33:46;;;;;;;3.5;1.7;;;;;;;12.56;42.59277;928.9807;;;;
2023/11/09 14:36:10;;;;;;;2.8;1.6;;;;;;;12.49;42.26367;928.9217;;;;
2023/11/09 14:38:43;;;;;;;6.4;2.9;;;;;;;12.51;43;928.8848;;;;
2023/11/09 14:41:12;;;;;;;13.4;4.1;;;;;;;12.54;43.46191;928.9124;;;;
2023/11/09 14:43:33;;;;;;;9.1;3.9;;;;;;;12.4;43.87109;928.8875;;;;
2023/11/09 14:46:04;;;;;;;15.4;6.6;;;;;;;12.46;44.46387;928.9174;;;;
2023/11/09 14:48:24;;;;;;;12.1;5.3;;;;;;;12.5;45.95801;928.9104;;;;
2023/11/09 14:50:47;;;;;;;10.1;4.9;;;;;;;12.43;46.50195;928.877;;;;
2023/11/09 14:53:17;;;;;;;19.4;13.3;;;;;;;12.48;48.52441;928.8979;;;;
2023/11/09 14:55:40;;;;;;;6.2;4.1;;;;;;;12.45;48.78516;928.8959;;;;
2023/11/09 14:58:13;;;;;;;5;3.4;;;;;;;12.33;50.69824;928.8381;;;;
2023/11/09 15:00:36;;;;;;;8.4;5.9;;;;;;;12.18;52.06738;928.8931;;;;
2023/11/09 15:03:03;;;;;;;6.8;4.3;;;;;;;12.04;52.62207;928.9036;;;;
2023/11/09 15:05:34;;;;;;;9.1;4.1;;;;;;;12.07;52.5127;928.9016;;;;
2023/11/09 15:08:00;;;;;;;5.4;3.7;;;;;;;12.12;52.54199;928.9073;;;;
2023/11/09 15:10:26;;;;;;;6;4.2;;;;;;;12.11;53.96191;928.8764;;;;
2023/11/09 15:12:55;;;;;;;7.7;3.9;;;;;;;12.06;53.29004;928.8187;;;;
2023/11/09 15:15:25;;;;;;;1.7;1.4;;;;;;;11.82;53.09961;928.8722;;;;
2023/11/09 15:17:51;;;;;;;3.4;1.4;;;;;;;11.79;53.13184;928.8674;;;;
2023/11/09 15:20:22;;;;;;;3.3;1.7;;;;;;;11.63;54.22168;928.8433;;;;
2023/11/09 15:22:55;;;;;;;3.2;1.6;;;;;;;11.52;56.22363;928.82;;;;
2023/11/09 15:25:19;;;;;;;3.6;1.9;;;;;;;11.45;56.30371;928.7985;;;;
2023/11/09 15:27:50;;;;;;;3.8;1.9;;;;;;;11.57;56.99609;928.7917;;;;
2023/11/09 15:30:24;;;;;;;13.8;7.7;;;;;;;11.48;58.03516;928.7424;;;;
2023/11/09 15:32:47;;;;;;;20.4;11;;;;;;;11.3;59.41895;928.7047;;;;
2023/11/09 15:35:11;;;;;;;27.1;12.1;;;;;;;11.16;60.37305;928.6841;;;;
2023/11/09 15:37:43;;;;;;;16.1;6.8;;;;;;;11.14;59.99316;928.685;;;;
2023/11/09 15:40:10;;;;;;;14.3;7.3;;;;;;;11.16;60.68164;928.6203;;;;
2023/11/09 15:42:32;;;;;;;26.8;10.3;;;;;;;11.17;60.56738;928.6314;;;;
2023/11/09 15:45:03;;;;;;;42.6;20.6;;;;;;;11.2;59.96484;928.601;;;;
2023/11/09 15:47:28;;;;;;;10.6;6.7;;;;;;;11.09;60.21387;928.5667;;;;
2023/11/09 15:49:57;;;;;;;13.1;6.3;;;;;;;10.8;61.55469;928.629;;;;
2023/11/09 15:52:22;;;;;;;17.8;8.2;;;;;;;10.7;62.02051;928.6766;;;;
2023/11/09 15:54:52;;;;;;;23.1;8.9;;;;;;;10.67;62.9873;928.7183;;;;
2023/11/09 15:57:16;;;;;;;12.6;5.6;;;;;;;10.74;63.24902;928.7178;;;;
2023/11/09 15:59:45;;;;;;;6.9;4.1;;;;;;;10.93;61.78027;928.6864;;;;